sensor_id;sensor_type;location;lat;lon;timestamp;temperature;humidity
24260;DHT22;12384;48.112;18.418;2022-08-19T00:01:32;25.70;42.00
24260;DHT22;12384;48.112;18.418;2022-08-19T00:04:06;25.70;42.10
24260;DHT22;12384;48.112;18.418;2022-08-19T00:06:36;25.60;42.10
24260;DHT22;12384;48.112;18.418;2022-08-19T00:09:07;25.60;42.30
24260;DHT22;12384;48.112;18.418;2022-08-19T00:11:37;25.60;42.40
24260;DHT22;12384;48.112;18.418;2022-08-19T00:14:08;25.50;42.50
24260;DHT22;12384;48.112;18.418;2022-08-19T00:16:41;25.50;42.50
24260;DHT22;12384;48.112;18.418;2022-08-19T00:19:10;25.50;42.60
24260;DHT22;12384;48.112;18.418;2022-08-19T00:21:39;25.40;42.70
24260;DHT22;12384;48.112;18.418;2022-08-19T00:24:09;25.40;42.80
24260;DHT22;12384;48.112;18.418;2022-08-19T00:26:38;25.40;42.90
24260;DHT22;12384;48.112;18.418;2022-08-19T00:29:10;25.30;43.60
24260;DHT22;12384;48.112;18.418;2022-08-19T00:31:40;25.30;43.10
24260;DHT22;12384;48.112;18.418;2022-08-19T00:34:10;25.30;43.30
24260;DHT22;12384;48.112;18.418;2022-08-19T00:36:39;25.30;43.30
24260;DHT22;12384;48.112;18.418;2022-08-19T00:39:10;25.30;43.50
24260;DHT22;12384;48.112;18.418;2022-08-19T00:41:39;25.30;43.60
24260;DHT22;12384;48.112;18.418;2022-08-19T00:44:10;25.30;43.60
24260;DHT22;12384;48.112;18.418;2022-08-19T00:46:44;25.30;43.60
24260;DHT22;12384;48.112;18.418;2022-08-19T00:49:27;25.20;43.60
24260;DHT22;12384;48.112;18.418;2022-08-19T00:52:00;25.20;43.80
24260;DHT22;12384;48.112;18.418;2022-08-19T00:54:30;25.20;43.70
24260;DHT22;12384;48.112;18.418;2022-08-19T00:57:02;25.20;43.80
24260;DHT22;12384;48.112;18.418;2022-08-19T00:59:35;25.20;44.10
24260;DHT22;12384;48.112;18.418;2022-08-19T01:02:27;25.20;44.00
24260;DHT22;12384;48.112;18.418;2022-08-19T01:04:56;25.20;44.10
24260;DHT22;12384;48.112;18.418;2022-08-19T01:07:25;25.10;44.10
24260;DHT22;12384;48.112;18.418;2022-08-19T01:09:54;25.20;44.20
24260;DHT22;12384;48.112;18.418;2022-08-19T01:12:22;25.20;44.30
24260;DHT22;12384;48.112;18.418;2022-08-19T01:14:52;25.10;44.40
24260;DHT22;12384;48.112;18.418;2022-08-19T01:17:22;25.20;44.50
24260;DHT22;12384;48.112;18.418;2022-08-19T01:19:52;25.20;44.60
24260;DHT22;12384;48.112;18.418;2022-08-19T01:22:27;25.20;44.60
24260;DHT22;12384;48.112;18.418;2022-08-19T01:25:00;25.30;44.70
24260;DHT22;12384;48.112;18.418;2022-08-19T01:27:39;25.30;44.80
24260;DHT22;12384;48.112;18.418;2022-08-19T01:30:11;25.30;44.70
24260;DHT22;12384;48.112;18.418;2022-08-19T01:32:40;25.30;44.70
24260;DHT22;12384;48.112;18.418;2022-08-19T01:35:11;25.30;44.80
24260;DHT22;12384;48.112;18.418;2022-08-19T01:37:47;25.20;44.80
24260;DHT22;12384;48.112;18.418;2022-08-19T01:40:17;25.30;45.00
24260;DHT22;12384;48.112;18.418;2022-08-19T01:42:47;25.20;45.00
24260;DHT22;12384;48.112;18.418;2022-08-19T01:45:16;25.20;45.10
24260;DHT22;12384;48.112;18.418;2022-08-19T01:47:45;25.10;45.20
24260;DHT22;12384;48.112;18.418;2022-08-19T01:50:18;25.10;45.30
24260;DHT22;12384;48.112;18.418;2022-08-19T01:52:49;25.10;45.50
24260;DHT22;12384;48.112;18.418;2022-08-19T01:55:34;25.00;45.50
24260;DHT22;12384;48.112;18.418;2022-08-19T01:58:13;25.00;45.60
24260;DHT22;12384;48.112;18.418;2022-08-19T02:00:43;25.00;45.70
24260;DHT22;12384;48.112;18.418;2022-08-19T02:03:12;25.00;45.80
24260;DHT22;12384;48.112;18.418;2022-08-19T02:05:41;25.00;45.90
24260;DHT22;12384;48.112;18.418;2022-08-19T02:08:11;24.90;46.00
24260;DHT22;12384;48.112;18.418;2022-08-19T02:10:42;24.90;46.10
24260;DHT22;12384;48.112;18.418;2022-08-19T02:13:12;24.90;46.30
24260;DHT22;12384;48.112;18.418;2022-08-19T02:15:41;24.80;46.30
24260;DHT22;12384;48.112;18.418;2022-08-19T02:18:09;24.80;46.40
24260;DHT22;12384;48.112;18.418;2022-08-19T02:20:39;24.80;46.50
24260;DHT22;12384;48.112;18.418;2022-08-19T02:23:11;24.70;46.60
24260;DHT22;12384;48.112;18.418;2022-08-19T02:25:43;24.70;46.70
24260;DHT22;12384;48.112;18.418;2022-08-19T02:28:12;24.70;47.40
24260;DHT22;12384;48.112;18.418;2022-08-19T02:30:46;24.70;47.00
24260;DHT22;12384;48.112;18.418;2022-08-19T02:33:15;24.60;46.90
24260;DHT22;12384;48.112;18.418;2022-08-19T02:35:45;24.60;46.90
24260;DHT22;12384;48.112;18.418;2022-08-19T02:38:16;24.60;47.10
24260;DHT22;12384;48.112;18.418;2022-08-19T02:40:56;24.50;47.10
24260;DHT22;12384;48.112;18.418;2022-08-19T02:43:26;24.50;47.20
24260;DHT22;12384;48.112;18.418;2022-08-19T02:46:00;24.50;47.20
24260;DHT22;12384;48.112;18.418;2022-08-19T02:48:28;24.50;47.30
24260;DHT22;12384;48.112;18.418;2022-08-19T02:50:59;24.50;47.50
24260;DHT22;12384;48.112;18.418;2022-08-19T02:53:29;24.40;47.50
24260;DHT22;12384;48.112;18.418;2022-08-19T02:55:58;24.40;47.60
24260;DHT22;12384;48.112;18.418;2022-08-19T02:58:27;24.40;47.60
24260;DHT22;12384;48.112;18.418;2022-08-19T03:00:56;24.40;47.80
24260;DHT22;12384;48.112;18.418;2022-08-19T03:03:26;24.40;47.90
24260;DHT22;12384;48.112;18.418;2022-08-19T03:06:06;24.30;47.90
24260;DHT22;12384;48.112;18.418;2022-08-19T03:08:37;24.40;48.10
24260;DHT22;12384;48.112;18.418;2022-08-19T03:11:06;24.30;48.20
24260;DHT22;12384;48.112;18.418;2022-08-19T03:13:34;24.40;48.40
24260;DHT22;12384;48.112;18.418;2022-08-19T03:16:05;24.30;48.40
24260;DHT22;12384;48.112;18.418;2022-08-19T03:18:33;24.40;48.50
24260;DHT22;12384;48.112;18.418;2022-08-19T03:21:02;24.40;48.50
24260;DHT22;12384;48.112;18.418;2022-08-19T03:23:31;24.40;48.60
24260;DHT22;12384;48.112;18.418;2022-08-19T03:26:03;24.40;48.60
24260;DHT22;12384;48.112;18.418;2022-08-19T03:28:42;24.40;48.80
24260;DHT22;12384;48.112;18.418;2022-08-19T03:31:20;24.40;48.80
24260;DHT22;12384;48.112;18.418;2022-08-19T03:34:10;24.40;48.80
24260;DHT22;12384;48.112;18.418;2022-08-19T03:36:39;24.40;48.80
24260;DHT22;12384;48.112;18.418;2022-08-19T03:39:10;24.40;49.40
24260;DHT22;12384;48.112;18.418;2022-08-19T03:41:41;24.40;48.80
24260;DHT22;12384;48.112;18.418;2022-08-19T03:44:13;24.40;48.80
24260;DHT22;12384;48.112;18.418;2022-08-19T03:46:46;24.40;48.80
24260;DHT22;12384;48.112;18.418;2022-08-19T03:49:15;24.40;48.80
24260;DHT22;12384;48.112;18.418;2022-08-19T03:51:46;24.50;49.00
24260;DHT22;12384;48.112;18.418;2022-08-19T03:54:17;24.40;48.80
24260;DHT22;12384;48.112;18.418;2022-08-19T03:56:48;24.50;48.90
24260;DHT22;12384;48.112;18.418;2022-08-19T03:59:21;24.40;48.80
24260;DHT22;12384;48.112;18.418;2022-08-19T04:01:52;24.50;49.00
24260;DHT22;12384;48.112;18.418;2022-08-19T04:04:22;24.50;49.00
24260;DHT22;12384;48.112;18.418;2022-08-19T04:06:55;24.50;49.00
24260;DHT22;12384;48.112;18.418;2022-08-19T04:09:24;24.50;49.00
24260;DHT22;12384;48.112;18.418;2022-08-19T04:11:56;24.50;49.10
24260;DHT22;12384;48.112;18.418;2022-08-19T04:14:29;24.50;49.10
24260;DHT22;12384;48.112;18.418;2022-08-19T04:17:00;24.50;49.00
24260;DHT22;12384;48.112;18.418;2022-08-19T04:19:30;24.50;49.00
24260;DHT22;12384;48.112;18.418;2022-08-19T04:21:59;24.50;49.00
24260;DHT22;12384;48.112;18.418;2022-08-19T04:24:27;24.60;49.10
24260;DHT22;12384;48.112;18.418;2022-08-19T04:26:59;24.60;49.20
24260;DHT22;12384;48.112;18.418;2022-08-19T04:29:28;24.60;49.20
24260;DHT22;12384;48.112;18.418;2022-08-19T04:31:58;24.60;49.20
24260;DHT22;12384;48.112;18.418;2022-08-19T04:34:36;24.60;49.80
24260;DHT22;12384;48.112;18.418;2022-08-19T04:37:26;24.70;49.20
24260;DHT22;12384;48.112;18.418;2022-08-19T04:40:05;24.70;49.20
24260;DHT22;12384;48.112;18.418;2022-08-19T04:42:53;24.70;49.10
24260;DHT22;12384;48.112;18.418;2022-08-19T04:45:22;24.80;49.20
24260;DHT22;12384;48.112;18.418;2022-08-19T04:47:55;24.90;49.20
24260;DHT22;12384;48.112;18.418;2022-08-19T04:50:44;25.00;49.20
24260;DHT22;12384;48.112;18.418;2022-08-19T04:53:12;25.00;49.00
24260;DHT22;12384;48.112;18.418;2022-08-19T04:55:42;25.10;48.90
24260;DHT22;12384;48.112;18.418;2022-08-19T04:58:11;25.20;48.80
24260;DHT22;12384;48.112;18.418;2022-08-19T05:00:40;25.20;48.60
24260;DHT22;12384;48.112;18.418;2022-08-19T05:03:09;25.20;48.60
24260;DHT22;12384;48.112;18.418;2022-08-19T05:05:41;25.30;48.50
24260;DHT22;12384;48.112;18.418;2022-08-19T05:08:12;25.30;48.50
24260;DHT22;12384;48.112;18.418;2022-08-19T05:10:42;25.30;48.40
24260;DHT22;12384;48.112;18.418;2022-08-19T05:13:13;25.30;48.40
24260;DHT22;12384;48.112;18.418;2022-08-19T05:15:42;25.40;48.40
24260;DHT22;12384;48.112;18.418;2022-08-19T05:18:10;25.40;48.40
24260;DHT22;12384;48.112;18.418;2022-08-19T05:20:56;25.40;48.40
24260;DHT22;12384;48.112;18.418;2022-08-19T05:23:43;25.50;48.40
24260;DHT22;12384;48.112;18.418;2022-08-19T05:26:11;25.60;48.40
24260;DHT22;12384;48.112;18.418;2022-08-19T05:28:41;25.70;48.40
24260;DHT22;12384;48.112;18.418;2022-08-19T05:31:10;25.90;48.30
24260;DHT22;12384;48.112;18.418;2022-08-19T05:33:40;26.20;48.10
24260;DHT22;12384;48.112;18.418;2022-08-19T05:36:08;26.40;47.60
24260;DHT22;12384;48.112;18.418;2022-08-19T05:38:37;26.70;47.40
24260;DHT22;12384;48.112;18.418;2022-08-19T05:41:07;26.90;46.90
24260;DHT22;12384;48.112;18.418;2022-08-19T05:43:36;27.20;46.60
24260;DHT22;12384;48.112;18.418;2022-08-19T05:46:07;27.40;46.10
24260;DHT22;12384;48.112;18.418;2022-08-19T05:48:36;27.70;45.70
24260;DHT22;12384;48.112;18.418;2022-08-19T05:51:06;28.00;45.50
24260;DHT22;12384;48.112;18.418;2022-08-19T05:53:36;28.30;44.80
24260;DHT22;12384;48.112;18.418;2022-08-19T05:56:05;28.60;44.50
24260;DHT22;12384;48.112;18.418;2022-08-19T05:58:34;28.90;44.10
24260;DHT22;12384;48.112;18.418;2022-08-19T06:01:04;29.20;43.60
24260;DHT22;12384;48.112;18.418;2022-08-19T06:03:34;29.60;42.90
24260;DHT22;12384;48.112;18.418;2022-08-19T06:06:04;29.90;42.00
24260;DHT22;12384;48.112;18.418;2022-08-19T06:08:34;30.10;41.20
24260;DHT22;12384;48.112;18.418;2022-08-19T06:11:16;30.30;40.30
24260;DHT22;12384;48.112;18.418;2022-08-19T06:13:45;30.40;40.10
24260;DHT22;12384;48.112;18.418;2022-08-19T06:16:26;30.50;40.10
24260;DHT22;12384;48.112;18.418;2022-08-19T06:18:57;30.70;40.50
24260;DHT22;12384;48.112;18.418;2022-08-19T06:21:28;30.90;39.80
24260;DHT22;12384;48.112;18.418;2022-08-19T06:23:58;31.10;39.70
24260;DHT22;12384;48.112;18.418;2022-08-19T06:26:27;31.30;38.70
24260;DHT22;12384;48.112;18.418;2022-08-19T06:28:56;31.50;38.40
24260;DHT22;12384;48.112;18.418;2022-08-19T06:31:28;31.70;37.80
24260;DHT22;12384;48.112;18.418;2022-08-19T06:34:00;31.90;37.90
24260;DHT22;12384;48.112;18.418;2022-08-19T06:36:33;32.10;37.70
24260;DHT22;12384;48.112;18.418;2022-08-19T06:39:04;32.30;37.60
24260;DHT22;12384;48.112;18.418;2022-08-19T06:41:36;32.50;37.30
24260;DHT22;12384;48.112;18.418;2022-08-19T06:44:18;32.90;36.80
24260;DHT22;12384;48.112;18.418;2022-08-19T06:46:47;33.10;36.40
24260;DHT22;12384;48.112;18.418;2022-08-19T06:49:23;33.40;36.10
24260;DHT22;12384;48.112;18.418;2022-08-19T06:51:54;33.80;35.30
24260;DHT22;12384;48.112;18.418;2022-08-19T06:54:24;34.00;34.70
24260;DHT22;12384;48.112;18.418;2022-08-19T06:56:59;34.30;33.90
24260;DHT22;12384;48.112;18.418;2022-08-19T06:59:30;34.30;33.40
24260;DHT22;12384;48.112;18.418;2022-08-19T07:02:01;34.50;33.20
24260;DHT22;12384;48.112;18.418;2022-08-19T07:04:36;34.70;33.00
24260;DHT22;12384;48.112;18.418;2022-08-19T07:07:11;34.80;32.80
24260;DHT22;12384;48.112;18.418;2022-08-19T07:09:48;35.00;32.40
24260;DHT22;12384;48.112;18.418;2022-08-19T07:12:24;35.10;32.00
24260;DHT22;12384;48.112;18.418;2022-08-19T07:14:53;35.20;31.80
24260;DHT22;12384;48.112;18.418;2022-08-19T07:17:21;35.30;31.90
24260;DHT22;12384;48.112;18.418;2022-08-19T07:19:51;35.30;31.80
24260;DHT22;12384;48.112;18.418;2022-08-19T07:22:21;35.50;31.70
24260;DHT22;12384;48.112;18.418;2022-08-19T07:24:50;35.60;31.30
24260;DHT22;12384;48.112;18.418;2022-08-19T07:27:20;35.80;30.90
24260;DHT22;12384;48.112;18.418;2022-08-19T07:29:53;35.90;30.70
24260;DHT22;12384;48.112;18.418;2022-08-19T07:32:25;36.10;31.10
24260;DHT22;12384;48.112;18.418;2022-08-19T07:34:56;36.30;31.10
24260;DHT22;12384;48.112;18.418;2022-08-19T07:37:24;36.70;30.20
24260;DHT22;12384;48.112;18.418;2022-08-19T07:39:59;36.90;29.90
24260;DHT22;12384;48.112;18.418;2022-08-19T07:42:28;37.10;29.50
24260;DHT22;12384;48.112;18.418;2022-08-19T07:44:57;37.30;29.30
24260;DHT22;12384;48.112;18.418;2022-08-19T07:47:26;37.50;28.90
24260;DHT22;12384;48.112;18.418;2022-08-19T07:50:16;37.60;28.80
24260;DHT22;12384;48.112;18.418;2022-08-19T07:52:47;37.80;28.90
24260;DHT22;12384;48.112;18.418;2022-08-19T07:55:18;38.00;28.50
24260;DHT22;12384;48.112;18.418;2022-08-19T07:58:08;38.20;27.90
24260;DHT22;12384;48.112;18.418;2022-08-19T08:00:36;38.20;27.50
24260;DHT22;12384;48.112;18.418;2022-08-19T08:03:05;37.90;27.40
24260;DHT22;12384;48.112;18.418;2022-08-19T08:05:37;37.60;27.70
24260;DHT22;12384;48.112;18.418;2022-08-19T08:08:23;37.30;27.80
24260;DHT22;12384;48.112;18.418;2022-08-19T08:11:20;36.80;28.10
24260;DHT22;12384;48.112;18.418;2022-08-19T08:13:50;36.30;28.60
24260;DHT22;12384;48.112;18.418;2022-08-19T08:16:33;35.90;29.10
24260;DHT22;12384;48.112;18.418;2022-08-19T08:19:06;35.60;29.50
24260;DHT22;12384;48.112;18.418;2022-08-19T08:21:53;35.40;29.70
24260;DHT22;12384;48.112;18.418;2022-08-19T08:24:23;35.20;29.90
24260;DHT22;12384;48.112;18.418;2022-08-19T08:26:55;35.00;30.00
24260;DHT22;12384;48.112;18.418;2022-08-19T08:29:24;34.80;30.30
24260;DHT22;12384;48.112;18.418;2022-08-19T08:32:01;34.60;30.60
24260;DHT22;12384;48.112;18.418;2022-08-19T08:34:41;34.40;30.80
24260;DHT22;12384;48.112;18.418;2022-08-19T08:37:11;34.20;31.20
24260;DHT22;12384;48.112;18.418;2022-08-19T08:39:42;34.00;31.40
24260;DHT22;12384;48.112;18.418;2022-08-19T08:42:15;33.90;31.70
24260;DHT22;12384;48.112;18.418;2022-08-19T08:44:51;34.00;32.10
24260;DHT22;12384;48.112;18.418;2022-08-19T08:47:22;34.10;32.20
24260;DHT22;12384;48.112;18.418;2022-08-19T08:49:58;34.40;32.00
24260;DHT22;12384;48.112;18.418;2022-08-19T08:52:31;34.70;31.80
24260;DHT22;12384;48.112;18.418;2022-08-19T08:55:07;35.10;31.50
24260;DHT22;12384;48.112;18.418;2022-08-19T08:57:39;35.40;31.10
24260;DHT22;12384;48.112;18.418;2022-08-19T09:00:14;35.70;30.50
24260;DHT22;12384;48.112;18.418;2022-08-19T09:02:44;36.00;30.30
24260;DHT22;12384;48.112;18.418;2022-08-19T09:05:17;36.30;30.00
24260;DHT22;12384;48.112;18.418;2022-08-19T09:08:02;36.60;29.40
24260;DHT22;12384;48.112;18.418;2022-08-19T09:10:38;37.10;29.00
24260;DHT22;12384;48.112;18.418;2022-08-19T09:13:18;37.40;28.90
24260;DHT22;12384;48.112;18.418;2022-08-19T09:15:54;37.80;28.70
24260;DHT22;12384;48.112;18.418;2022-08-19T09:18:25;38.20;28.40
24260;DHT22;12384;48.112;18.418;2022-08-19T09:20:55;38.70;28.20
24260;DHT22;12384;48.112;18.418;2022-08-19T09:23:25;39.00;27.60
24260;DHT22;12384;48.112;18.418;2022-08-19T09:25:54;39.40;27.00
24260;DHT22;12384;48.112;18.418;2022-08-19T09:28:24;39.60;26.40
24260;DHT22;12384;48.112;18.418;2022-08-19T09:30:53;39.80;26.10
24260;DHT22;12384;48.112;18.418;2022-08-19T09:33:21;39.80;25.80
24260;DHT22;12384;48.112;18.418;2022-08-19T09:35:50;39.80;25.70
24260;DHT22;12384;48.112;18.418;2022-08-19T09:38:36;40.00;25.80
24260;DHT22;12384;48.112;18.418;2022-08-19T09:41:12;40.10;25.80
24260;DHT22;12384;48.112;18.418;2022-08-19T09:43:43;40.10;25.20
24260;DHT22;12384;48.112;18.418;2022-08-19T09:46:14;40.20;25.10
24260;DHT22;12384;48.112;18.418;2022-08-19T09:48:44;40.40;25.10
24260;DHT22;12384;48.112;18.418;2022-08-19T09:51:17;40.60;25.30
24260;DHT22;12384;48.112;18.418;2022-08-19T09:53:49;40.80;25.20
24260;DHT22;12384;48.112;18.418;2022-08-19T09:56:21;40.90;24.70
24260;DHT22;12384;48.112;18.418;2022-08-19T09:58:51;41.00;24.60
24260;DHT22;12384;48.112;18.418;2022-08-19T10:01:21;41.10;24.60
24260;DHT22;12384;48.112;18.418;2022-08-19T10:03:52;41.20;24.60
24260;DHT22;12384;48.112;18.418;2022-08-19T10:06:22;41.30;24.40
24260;DHT22;12384;48.112;18.418;2022-08-19T10:09:12;41.20;24.20
24260;DHT22;12384;48.112;18.418;2022-08-19T10:11:43;41.10;24.10
24260;DHT22;12384;48.112;18.418;2022-08-19T10:14:21;41.00;23.70
24260;DHT22;12384;48.112;18.418;2022-08-19T10:16:50;40.80;23.30
24260;DHT22;12384;48.112;18.418;2022-08-19T10:19:19;40.70;23.20
24260;DHT22;12384;48.112;18.418;2022-08-19T10:21:52;40.30;23.60
24260;DHT22;12384;48.112;18.418;2022-08-19T10:24:28;40.10;23.50
24260;DHT22;12384;48.112;18.418;2022-08-19T10:26:57;39.90;23.70
24260;DHT22;12384;48.112;18.418;2022-08-19T10:29:26;39.80;23.50
24260;DHT22;12384;48.112;18.418;2022-08-19T10:31:59;39.60;24.30
24260;DHT22;12384;48.112;18.418;2022-08-19T10:34:30;39.50;23.80
24260;DHT22;12384;48.112;18.418;2022-08-19T10:36:59;39.40;24.10
24260;DHT22;12384;48.112;18.418;2022-08-19T10:39:31;39.50;24.30
24260;DHT22;12384;48.112;18.418;2022-08-19T10:42:09;39.60;24.20
24260;DHT22;12384;48.112;18.418;2022-08-19T10:44:40;39.60;24.10
24260;DHT22;12384;48.112;18.418;2022-08-19T10:47:09;39.80;24.20
24260;DHT22;12384;48.112;18.418;2022-08-19T10:49:53;39.90;24.20
24260;DHT22;12384;48.112;18.418;2022-08-19T10:52:40;40.10;24.00
24260;DHT22;12384;48.112;18.418;2022-08-19T10:55:19;40.20;23.90
24260;DHT22;12384;48.112;18.418;2022-08-19T10:58:11;40.40;23.80
24260;DHT22;12384;48.112;18.418;2022-08-19T11:00:40;40.60;23.80
24260;DHT22;12384;48.112;18.418;2022-08-19T11:03:09;40.80;23.40
24260;DHT22;12384;48.112;18.418;2022-08-19T11:05:38;40.90;23.20
24260;DHT22;12384;48.112;18.418;2022-08-19T11:08:07;41.00;22.80
24260;DHT22;12384;48.112;18.418;2022-08-19T11:10:51;41.10;22.80
24260;DHT22;12384;48.112;18.418;2022-08-19T11:13:26;41.10;23.00
24260;DHT22;12384;48.112;18.418;2022-08-19T11:16:03;41.20;23.00
24260;DHT22;12384;48.112;18.418;2022-08-19T11:18:38;41.40;22.90
24260;DHT22;12384;48.112;18.418;2022-08-19T11:21:12;41.50;22.60
24260;DHT22;12384;48.112;18.418;2022-08-19T11:23:41;41.50;22.40
24260;DHT22;12384;48.112;18.418;2022-08-19T11:26:11;41.60;22.30
24260;DHT22;12384;48.112;18.418;2022-08-19T11:28:41;41.60;22.30
24260;DHT22;12384;48.112;18.418;2022-08-19T11:31:10;41.70;22.50
24260;DHT22;12384;48.112;18.418;2022-08-19T11:33:40;41.80;22.50
24260;DHT22;12384;48.112;18.418;2022-08-19T11:36:14;41.90;22.30
24260;DHT22;12384;48.112;18.418;2022-08-19T11:38:44;42.00;22.30
24260;DHT22;12384;48.112;18.418;2022-08-19T11:41:17;42.20;22.40
24260;DHT22;12384;48.112;18.418;2022-08-19T11:43:46;42.20;22.30
24260;DHT22;12384;48.112;18.418;2022-08-19T11:46:16;42.30;22.20
24260;DHT22;12384;48.112;18.418;2022-08-19T11:48:45;42.40;22.10
24260;DHT22;12384;48.112;18.418;2022-08-19T11:51:16;42.50;22.10
24260;DHT22;12384;48.112;18.418;2022-08-19T11:53:45;42.60;21.90
24260;DHT22;12384;48.112;18.418;2022-08-19T11:56:15;42.70;21.70
24260;DHT22;12384;48.112;18.418;2022-08-19T11:58:44;42.90;21.00
24260;DHT22;12384;48.112;18.418;2022-08-19T12:01:15;42.90;20.90
24260;DHT22;12384;48.112;18.418;2022-08-19T12:03:46;42.70;20.70
24260;DHT22;12384;48.112;18.418;2022-08-19T12:06:17;42.70;20.80
24260;DHT22;12384;48.112;18.418;2022-08-19T12:08:46;42.70;20.70
24260;DHT22;12384;48.112;18.418;2022-08-19T12:11:17;42.60;20.70
24260;DHT22;12384;48.112;18.418;2022-08-19T12:13:45;42.60;20.70
24260;DHT22;12384;48.112;18.418;2022-08-19T12:16:18;42.70;20.80
24260;DHT22;12384;48.112;18.418;2022-08-19T12:18:47;42.50;20.80
24260;DHT22;12384;48.112;18.418;2022-08-19T12:21:19;42.50;21.00
24260;DHT22;12384;48.112;18.418;2022-08-19T12:23:50;42.50;21.00
24260;DHT22;12384;48.112;18.418;2022-08-19T12:26:24;42.40;21.00
24260;DHT22;12384;48.112;18.418;2022-08-19T12:28:53;42.50;21.60
24260;DHT22;12384;48.112;18.418;2022-08-19T12:31:22;42.70;21.30
24260;DHT22;12384;48.112;18.418;2022-08-19T12:33:50;42.80;20.90
24260;DHT22;12384;48.112;18.418;2022-08-19T12:36:20;42.80;20.70
24260;DHT22;12384;48.112;18.418;2022-08-19T12:38:49;42.70;20.50
24260;DHT22;12384;48.112;18.418;2022-08-19T12:41:18;42.50;20.60
24260;DHT22;12384;48.112;18.418;2022-08-19T12:43:50;42.30;20.70
24260;DHT22;12384;48.112;18.418;2022-08-19T12:46:19;42.00;20.60
24260;DHT22;12384;48.112;18.418;2022-08-19T12:48:52;41.70;20.90
24260;DHT22;12384;48.112;18.418;2022-08-19T12:51:22;41.40;21.20
24260;DHT22;12384;48.112;18.418;2022-08-19T12:53:54;41.10;21.50
24260;DHT22;12384;48.112;18.418;2022-08-19T12:56:22;40.70;21.70
24260;DHT22;12384;48.112;18.418;2022-08-19T12:58:52;40.30;21.90
24260;DHT22;12384;48.112;18.418;2022-08-19T13:01:21;39.90;22.10
24260;DHT22;12384;48.112;18.418;2022-08-19T13:03:50;39.60;22.30
24260;DHT22;12384;48.112;18.418;2022-08-19T13:06:20;39.40;23.10
24260;DHT22;12384;48.112;18.418;2022-08-19T13:08:48;39.10;22.80
24260;DHT22;12384;48.112;18.418;2022-08-19T13:11:19;38.80;23.10
24260;DHT22;12384;48.112;18.418;2022-08-19T13:13:52;38.50;23.20
24260;DHT22;12384;48.112;18.418;2022-08-19T13:16:22;38.30;23.50
24260;DHT22;12384;48.112;18.418;2022-08-19T13:18:50;38.10;23.80
24260;DHT22;12384;48.112;18.418;2022-08-19T13:21:23;37.90;25.50
24260;DHT22;12384;48.112;18.418;2022-08-19T13:23:52;37.70;26.70
24260;DHT22;12384;48.112;18.418;2022-08-19T13:26:21;37.30;27.40
24260;DHT22;12384;48.112;18.418;2022-08-19T13:28:51;36.80;27.90
24260;DHT22;12384;48.112;18.418;2022-08-19T13:31:51;36.20;28.50
24260;DHT22;12384;48.112;18.418;2022-08-19T13:34:38;35.90;28.70
24260;DHT22;12384;48.112;18.418;2022-08-19T13:37:06;35.50;29.20
24260;DHT22;12384;48.112;18.418;2022-08-19T13:39:35;35.30;29.80
24260;DHT22;12384;48.112;18.418;2022-08-19T13:42:04;35.30;30.10
24260;DHT22;12384;48.112;18.418;2022-08-19T13:44:35;35.30;30.10
24260;DHT22;12384;48.112;18.418;2022-08-19T13:47:05;35.30;30.70
24260;DHT22;12384;48.112;18.418;2022-08-19T13:49:35;35.10;30.30
24260;DHT22;12384;48.112;18.418;2022-08-19T13:52:04;35.00;30.50
24260;DHT22;12384;48.112;18.418;2022-08-19T13:54:33;34.90;31.00
24260;DHT22;12384;48.112;18.418;2022-08-19T13:57:02;34.70;31.40
24260;DHT22;12384;48.112;18.418;2022-08-19T13:59:30;34.50;32.10
24260;DHT22;12384;48.112;18.418;2022-08-19T14:02:01;34.50;32.30
24260;DHT22;12384;48.112;18.418;2022-08-19T14:04:29;34.40;32.10
24260;DHT22;12384;48.112;18.418;2022-08-19T14:06:58;34.20;32.00
24260;DHT22;12384;48.112;18.418;2022-08-19T14:09:26;34.00;32.00
24260;DHT22;12384;48.112;18.418;2022-08-19T14:11:55;33.90;32.10
24260;DHT22;12384;48.112;18.418;2022-08-19T14:14:24;33.70;32.10
24260;DHT22;12384;48.112;18.418;2022-08-19T14:16:52;33.50;32.10
24260;DHT22;12384;48.112;18.418;2022-08-19T14:19:22;33.40;32.20
24260;DHT22;12384;48.112;18.418;2022-08-19T14:21:56;33.20;31.90
24260;DHT22;12384;48.112;18.418;2022-08-19T14:24:25;33.00;31.80
24260;DHT22;12384;48.112;18.418;2022-08-19T14:26:53;33.00;31.60
24260;DHT22;12384;48.112;18.418;2022-08-19T14:29:22;32.90;31.30
24260;DHT22;12384;48.112;18.418;2022-08-19T14:31:50;32.90;31.10
24260;DHT22;12384;48.112;18.418;2022-08-19T14:34:19;32.90;30.80
24260;DHT22;12384;48.112;18.418;2022-08-19T14:36:49;32.90;30.60
24260;DHT22;12384;48.112;18.418;2022-08-19T14:39:17;32.80;30.40
24260;DHT22;12384;48.112;18.418;2022-08-19T14:41:46;32.70;30.30
24260;DHT22;12384;48.112;18.418;2022-08-19T14:44:14;32.70;30.30
24260;DHT22;12384;48.112;18.418;2022-08-19T14:46:43;32.60;30.50
24260;DHT22;12384;48.112;18.418;2022-08-19T14:49:16;32.50;30.70
24260;DHT22;12384;48.112;18.418;2022-08-19T14:51:45;32.40;30.70
24260;DHT22;12384;48.112;18.418;2022-08-19T14:54:16;32.30;30.80
24260;DHT22;12384;48.112;18.418;2022-08-19T14:56:45;32.20;30.90
24260;DHT22;12384;48.112;18.418;2022-08-19T14:59:13;32.10;31.20
24260;DHT22;12384;48.112;18.418;2022-08-19T15:01:42;32.00;31.30
24260;DHT22;12384;48.112;18.418;2022-08-19T15:04:11;31.90;31.40
24260;DHT22;12384;48.112;18.418;2022-08-19T15:06:39;31.90;31.50
24260;DHT22;12384;48.112;18.418;2022-08-19T15:09:09;31.80;31.80
24260;DHT22;12384;48.112;18.418;2022-08-19T15:11:39;31.70;31.70
24260;DHT22;12384;48.112;18.418;2022-08-19T15:14:07;31.60;31.90
24260;DHT22;12384;48.112;18.418;2022-08-19T15:16:37;31.50;32.00
24260;DHT22;12384;48.112;18.418;2022-08-19T15:19:09;31.30;32.10
24260;DHT22;12384;48.112;18.418;2022-08-19T15:21:38;31.30;33.10
24260;DHT22;12384;48.112;18.418;2022-08-19T15:24:07;31.10;32.60
24260;DHT22;12384;48.112;18.418;2022-08-19T15:26:36;31.00;32.90
24260;DHT22;12384;48.112;18.418;2022-08-19T15:29:06;30.90;33.30
24260;DHT22;12384;48.112;18.418;2022-08-19T15:31:35;30.80;33.40
24260;DHT22;12384;48.112;18.418;2022-08-19T15:34:05;30.70;33.70
24260;DHT22;12384;48.112;18.418;2022-08-19T15:36:34;30.60;33.80
24260;DHT22;12384;48.112;18.418;2022-08-19T15:39:03;30.50;34.10
24260;DHT22;12384;48.112;18.418;2022-08-19T15:41:32;30.40;34.20
24260;DHT22;12384;48.112;18.418;2022-08-19T15:44:07;30.30;34.30